createdAt,value
2022-08-12T00:00:35.255Z,4.70
2022-08-12T00:03:20.805Z,4.50
2022-08-12T00:06:07.762Z,4.33
2022-08-12T00:08:53.262Z,4.70
2022-08-12T00:11:38.187Z,4.80
2022-08-12T00:14:24.941Z,4.60
2022-08-12T00:17:10.363Z,4.80
2022-08-12T00:19:55.272Z,4.50
2022-08-12T00:22:41.297Z,5.20
2022-08-12T00:26:19.078Z,4.90
2022-08-12T00:28:32.143Z,4.90
2022-08-12T00:31:18.789Z,4.57
2022-08-12T00:34:03.633Z,4.40
2022-08-12T00:36:50.665Z,4.77
2022-08-12T00:39:36.143Z,4.87
2022-08-12T00:42:11.726Z,4.63
2022-08-12T00:44:43.177Z,4.43
2022-08-12T00:47:25.114Z,4.30
2022-08-12T00:49:54.154Z,4.77
2022-08-12T00:52:21.753Z,4.10
2022-08-12T00:54:50.183Z,4.23
2022-08-12T00:57:18.439Z,4.43
2022-08-12T00:59:46.936Z,4.67
2022-08-12T01:02:22.519Z,4.93
2022-08-12T01:05:10.071Z,4.77
2022-08-12T01:07:55.963Z,4.70
2022-08-12T01:10:41.268Z,4.73
2022-08-12T01:13:19.095Z,4.70
2022-08-12T01:15:48.078Z,4.70
2022-08-12T01:18:18.619Z,4.80
2022-08-12T01:20:49.711Z,4.80
2022-08-12T01:23:32.729Z,4.80
2022-08-12T01:26:03.726Z,4.97
2022-08-12T01:28:32.254Z,4.83
2022-08-12T01:31:02.215Z,4.90
2022-08-12T01:33:31.828Z,5.00
2022-08-12T01:36:08.323Z,4.80
2022-08-12T01:38:37.220Z,5.07
2022-08-12T01:41:06.452Z,5.30
2022-08-12T01:43:34.178Z,4.70
2022-08-12T01:46:07.422Z,5.10
2022-08-12T01:48:45.964Z,4.93
2022-08-12T01:51:24.433Z,4.30
2022-08-12T01:54:07.056Z,5.00
2022-08-12T01:56:41.811Z,4.90
2022-08-12T01:59:28.641Z,4.63
2022-08-12T02:01:57.861Z,4.93
2022-08-12T02:04:50.747Z,4.80
2022-08-12T02:07:42.923Z,5.10
2022-08-12T02:10:51.134Z,4.80
2022-08-12T02:13:33.142Z,4.70
2022-08-12T02:16:18.139Z,4.47
2022-08-12T02:18:58.552Z,4.50
2022-08-12T02:21:32.707Z,4.93
2022-08-12T02:24:00.489Z,4.67
2022-08-12T02:26:30.190Z,4.77
2022-08-12T02:28:59.926Z,4.43
2022-08-12T02:31:27.856Z,4.33
2022-08-12T02:33:55.369Z,4.73
2022-08-12T02:36:23.108Z,4.87
2022-08-12T02:38:53.017Z,4.80
2022-08-12T02:41:22.258Z,4.87
2022-08-12T02:43:52.240Z,5.03
2022-08-12T02:46:25.554Z,4.43
2022-08-12T02:48:54.035Z,4.50
2022-08-12T02:51:24.125Z,4.40
2022-08-12T02:54:04.813Z,4.90
2022-08-12T02:56:33.949Z,4.77
2022-08-12T02:59:02.359Z,4.83
2022-08-12T03:01:33.889Z,4.57
2022-08-12T03:04:02.304Z,4.80
2022-08-12T03:06:34.233Z,4.77
2022-08-12T03:09:05.455Z,4.80
2022-08-12T03:11:40.205Z,5.00
2022-08-12T03:14:11.770Z,4.93
2022-08-12T03:16:40.773Z,4.70
2022-08-12T03:19:08.601Z,4.70
2022-08-12T03:21:56.519Z,5.43
2022-08-12T03:24:27.318Z,5.00
2022-08-12T03:26:55.656Z,4.70
2022-08-12T03:29:30.816Z,4.73
2022-08-12T03:32:00.837Z,4.87
2022-08-12T03:34:30.504Z,4.60
2022-08-12T03:36:58.587Z,4.70
2022-08-12T03:39:35.549Z,5.03
2022-08-12T03:42:06.337Z,5.10
2022-08-12T03:44:56.961Z,4.30
2022-08-12T03:47:47.624Z,4.90
2022-08-12T03:50:32.712Z,4.70
2022-08-12T03:53:17.487Z,5.20
2022-08-12T03:56:02.448Z,4.70
2022-08-12T03:58:47.936Z,5.10
2022-08-12T04:01:15.590Z,4.90
2022-08-12T04:03:54.641Z,5.60
2022-08-12T04:06:34.894Z,5.60
2022-08-12T04:09:05.236Z,5.27
2022-08-12T04:12:01.073Z,5.10
2022-08-12T04:14:28.702Z,4.83
2022-08-12T04:16:57.234Z,4.83
2022-08-12T04:19:26.317Z,4.83
2022-08-12T04:22:01.953Z,4.73
2022-08-12T04:24:31.087Z,4.90
2022-08-12T04:26:59.135Z,4.87
2022-08-12T04:30:21.355Z,4.77
2022-08-12T04:32:15.640Z,4.57
2022-08-12T04:34:44.932Z,4.83
2022-08-12T04:37:13.255Z,4.63
2022-08-12T04:39:41.136Z,4.97
2022-08-12T04:42:08.638Z,4.93
2022-08-12T04:44:36.074Z,4.70
2022-08-12T04:47:03.604Z,4.50
2022-08-12T04:49:32.918Z,4.37
2022-08-12T04:52:02.750Z,4.70
2022-08-12T04:54:30.521Z,4.67
2022-08-12T04:57:04.846Z,4.87
2022-08-12T04:59:47.063Z,4.97
2022-08-12T05:02:16.855Z,4.67
2022-08-12T05:04:48.571Z,4.47
2022-08-12T05:07:17.457Z,4.30
2022-08-12T05:09:59.868Z,4.50
2022-08-12T05:12:33.632Z,4.50
2022-08-12T05:15:01.138Z,4.10
2022-08-12T05:17:28.676Z,4.10
2022-08-12T05:19:57.431Z,4.73
2022-08-12T05:22:27.076Z,4.23
2022-08-12T05:24:54.602Z,3.80
2022-08-12T05:27:22.856Z,3.80
2022-08-12T05:30:07.559Z,3.90
2022-08-12T05:32:36.910Z,3.83
2022-08-12T05:35:06.359Z,3.57
2022-08-12T05:37:35.593Z,4.23
2022-08-12T05:40:08.265Z,4.13
2022-08-12T05:42:38.305Z,3.70
2022-08-12T05:45:06.771Z,3.83
2022-08-12T05:47:44.750Z,3.50
2022-08-12T05:50:21.512Z,3.63
2022-08-12T05:52:50.308Z,4.00
2022-08-12T05:55:20.731Z,3.50
2022-08-12T05:57:55.152Z,3.77
2022-08-12T06:00:25.419Z,4.37
2022-08-12T06:02:57.089Z,3.60
2022-08-12T06:05:25.076Z,3.43
2022-08-12T06:08:02.097Z,3.70
2022-08-12T06:10:32.711Z,3.40
2022-08-12T06:13:00.941Z,3.60
2022-08-12T06:15:28.476Z,3.53
2022-08-12T06:17:56.315Z,3.50
2022-08-12T06:20:29.441Z,3.53
2022-08-12T06:22:59.078Z,3.67
2022-08-12T06:25:29.242Z,3.43
2022-08-12T06:28:07.839Z,3.83
2022-08-12T06:30:39.623Z,3.33
2022-08-12T06:33:22.572Z,3.27
2022-08-12T06:35:51.302Z,3.50
2022-08-12T06:38:21.620Z,3.80
2022-08-12T06:41:07.842Z,3.40
2022-08-12T06:44:05.478Z,3.70
2022-08-12T06:46:26.725Z,3.17
2022-08-12T06:48:57.505Z,3.53
2022-08-12T06:51:25.110Z,3.53
2022-08-12T06:53:55.796Z,3.30
2022-08-12T06:56:39.795Z,3.43
2022-08-12T06:59:14.209Z,3.63
2022-08-12T07:01:49.704Z,3.17
2022-08-12T07:07:07.996Z,3.60
2022-08-12T07:10:06.762Z,3.60
2022-08-12T07:12:27.880Z,3.80
2022-08-12T07:14:55.774Z,3.00
2022-08-12T07:17:23.228Z,3.40
2022-08-12T07:19:52.023Z,3.07
2022-08-12T07:22:19.868Z,3.20
2022-08-12T07:25:08.753Z,3.07
2022-08-12T07:27:38.580Z,3.43
2022-08-12T07:30:07.808Z,3.40
2022-08-12T07:32:35.250Z,3.30
2022-08-12T07:35:04.106Z,3.10
2022-08-12T07:37:34.952Z,3.10
2022-08-12T07:40:04.439Z,3.50
2022-08-12T07:42:31.985Z,3.10
2022-08-12T07:44:59.760Z,2.80
2022-08-12T07:47:27.752Z,2.80
2022-08-12T07:50:03.185Z,2.97
2022-08-12T07:52:34.002Z,2.93
2022-08-12T07:55:02.034Z,2.97
2022-08-12T07:57:32.384Z,2.70
2022-08-12T08:00:04.319Z,3.00
2022-08-12T08:02:33.543Z,2.97
2022-08-12T08:05:01.046Z,2.70
2022-08-12T08:07:30.645Z,2.70
2022-08-12T08:09:59.260Z,2.90
2022-08-12T08:12:45.142Z,2.67
2022-08-12T08:15:15.174Z,2.70
2022-08-12T08:17:57.891Z,2.60
2022-08-12T08:20:28.731Z,2.43
2022-08-12T08:22:57.448Z,2.63
2022-08-12T08:25:36.963Z,2.40
2022-08-12T08:28:05.945Z,2.40
2022-08-12T08:30:34.772Z,2.30
2022-08-12T08:33:02.323Z,2.50
2022-08-12T08:35:46.930Z,2.30
2022-08-12T08:38:19.862Z,2.50
2022-08-12T08:42:14.227Z,2.60
2022-08-12T08:44:05.800Z,2.60
2022-08-12T08:46:37.825Z,2.50
2022-08-12T08:49:05.949Z,2.50
2022-08-12T08:51:33.595Z,2.50
2022-08-12T08:54:01.075Z,2.67
2022-08-12T08:56:30.126Z,2.70
2022-08-12T08:58:57.899Z,2.50
2022-08-12T09:01:25.496Z,2.63
2022-08-12T09:05:07.582Z,2.70
2022-08-12T09:06:53.312Z,2.40
2022-08-12T09:09:21.478Z,2.80
2022-08-12T09:14:54.331Z,2.47
2022-08-12T09:17:22.193Z,2.40
2022-08-12T09:19:57.259Z,2.43
2022-08-12T09:25:25.623Z,2.30
2022-08-12T09:28:03.626Z,2.53
2022-08-12T09:30:41.690Z,2.60
2022-08-12T09:33:18.944Z,2.70
2022-08-12T09:36:03.102Z,2.43
2022-08-12T09:38:33.655Z,2.30
2022-08-12T09:42:33.622Z,3.00
2022-08-12T09:44:38.135Z,2.57
2022-08-12T09:46:55.948Z,2.80
2022-08-12T09:49:25.071Z,2.53
2022-08-12T09:51:55.346Z,2.33
2022-08-12T09:54:31.680Z,2.27
2022-08-12T09:58:07.611Z,2.17
2022-08-12T10:00:15.873Z,2.30
2022-08-12T10:02:59.724Z,2.20
2022-08-12T10:06:26.927Z,2.23
2022-08-12T10:08:17.927Z,2.50
2022-08-12T10:11:05.256Z,2.63
2022-08-12T10:13:43.131Z,2.13
2022-08-12T10:16:22.245Z,2.40
2022-08-12T10:18:53.586Z,2.03
2022-08-12T10:21:23.201Z,2.50
2022-08-12T10:23:56.075Z,2.23
2022-08-12T10:26:42.260Z,2.43
2022-08-12T10:30:40.627Z,2.27
2022-08-12T10:32:44.431Z,2.20
2022-08-12T10:35:08.440Z,2.20
2022-08-12T10:38:34.892Z,2.40
2022-08-12T10:40:31.493Z,2.10
2022-08-12T10:43:17.648Z,2.10
2022-08-12T10:45:49.140Z,2.07
2022-08-12T10:48:33.190Z,1.90
2022-08-12T10:52:03.149Z,2.17
2022-08-12T10:54:00.732Z,2.20
2022-08-12T10:56:34.633Z,2.10
2022-08-12T10:59:03.224Z,1.90
2022-08-12T11:04:18.715Z,1.93
2022-08-12T11:04:35.443Z,2.07
2022-08-12T11:08:33.799Z,1.70
2022-08-12T11:09:59.560Z,1.97
2022-08-12T11:12:56.543Z,2.30
2022-08-12T11:15:24.219Z,2.10
2022-08-12T11:18:03.201Z,1.77
2022-08-12T11:20:31.421Z,2.00
2022-08-12T11:22:59.815Z,2.37
2022-08-12T11:25:57.403Z,2.10
2022-08-12T11:28:34.562Z,1.80
2022-08-12T11:31:04.400Z,2.10
2022-08-12T11:34:06.770Z,2.00
2022-08-12T11:36:22.158Z,1.77
2022-08-12T11:38:50.545Z,1.90
2022-08-12T11:41:31.651Z,2.30
2022-08-12T11:44:30.728Z,1.93
2022-08-12T11:46:51.329Z,2.00
2022-08-12T11:49:31.646Z,1.83
2022-08-12T11:52:01.157Z,2.00
2022-08-12T11:54:29.621Z,1.90
2022-08-12T11:57:00.188Z,2.00
2022-08-12T12:02:20.268Z,1.60
2022-08-12T12:04:52.357Z,1.80
2022-08-12T12:07:21.113Z,2.13
2022-08-12T12:09:52.898Z,1.60
2022-08-12T12:12:21.339Z,2.27
2022-08-12T12:14:54.907Z,2.20
2022-08-12T12:17:23.258Z,1.90
2022-08-12T12:19:50.748Z,2.00
2022-08-12T12:22:23.234Z,1.70
2022-08-12T12:24:54.530Z,2.00
2022-08-12T12:27:58.445Z,1.80
2022-08-12T12:30:18.875Z,1.90
2022-08-12T12:32:53.734Z,1.87
2022-08-12T12:36:17.123Z,1.70
2022-08-12T12:38:12.620Z,1.80
2022-08-12T12:40:41.166Z,1.97
2022-08-12T12:43:09.282Z,1.80
2022-08-12T12:45:39.475Z,1.77
2022-08-12T12:48:13.193Z,1.83
2022-08-12T12:50:45.684Z,1.80
2022-08-12T12:54:06.709Z,1.80
2022-08-12T12:56:15.491Z,1.80
2022-08-12T12:58:43.906Z,1.83
2022-08-12T13:01:26.830Z,1.67
2022-08-12T13:04:02.254Z,1.50
2022-08-12T13:06:31.507Z,2.00
2022-08-12T13:09:02.970Z,2.00
2022-08-12T13:11:32.787Z,1.60
2022-08-12T13:14:13.010Z,1.70
2022-08-12T13:16:57.489Z,1.70
2022-08-12T13:19:38.938Z,1.60
2022-08-12T13:22:19.959Z,1.63
2022-08-12T13:24:52.194Z,1.80
2022-08-12T13:27:22.975Z,1.60
2022-08-12T13:29:56.938Z,1.80
2022-08-12T13:32:31.661Z,1.77
2022-08-12T13:35:03.908Z,1.90
2022-08-12T13:37:43.791Z,1.70
2022-08-12T13:40:19.875Z,1.90
2022-08-12T13:42:51.046Z,2.00
2022-08-12T13:45:21.233Z,1.80
2022-08-12T13:47:55.507Z,1.70
2022-08-12T13:50:32.325Z,1.67
2022-08-12T13:53:01.205Z,1.67
2022-08-12T13:55:45.479Z,1.80
2022-08-12T13:58:16.576Z,1.93
2022-08-12T14:00:50.915Z,1.60
2022-08-12T14:03:20.167Z,1.90
2022-08-12T14:05:57.929Z,1.70
2022-08-12T14:08:34.432Z,1.70
2022-08-12T14:11:02.527Z,1.77
2022-08-12T14:14:05.147Z,1.80
2022-08-12T14:16:37.683Z,1.70
2022-08-12T14:19:22.590Z,1.70
2022-08-12T14:21:59.140Z,1.80
2022-08-12T14:24:27.408Z,1.80
2022-08-12T14:27:01.889Z,1.77
2022-08-12T14:29:56.040Z,1.73
2022-08-12T14:32:18.692Z,1.60
2022-08-12T14:34:51.561Z,1.60
2022-08-12T14:37:55.350Z,1.77
2022-08-12T14:40:07.280Z,1.63
2022-08-12T14:42:35.396Z,1.80
2022-08-12T14:45:02.945Z,1.80
2022-08-12T14:47:35.492Z,2.77
2022-08-12T14:50:58.856Z,1.50
2022-08-12T14:58:31.974Z,1.70
2022-08-12T15:01:17.287Z,1.97
2022-08-12T15:03:58.006Z,1.77
2022-08-12T15:06:43.819Z,1.67
2022-08-12T15:09:16.082Z,1.93
2022-08-12T15:11:54.984Z,2.23
2022-08-12T15:14:25.326Z,2.00
2022-08-12T15:16:53.023Z,1.77
2022-08-12T15:20:11.036Z,1.83
2022-08-12T15:22:35.604Z,1.73
2022-08-12T15:24:57.041Z,2.00
2022-08-12T15:27:31.741Z,1.90
2022-08-12T15:30:12.380Z,1.80
2022-08-12T15:32:40.488Z,1.70
2022-08-12T15:35:12.216Z,2.00
2022-08-12T15:38:08.966Z,1.90
2022-08-12T15:40:29.987Z,1.60
2022-08-12T15:42:59.677Z,1.50
2022-08-12T15:45:27.460Z,1.60
2022-08-12T15:48:04.614Z,2.23
2022-08-12T15:50:47.401Z,1.60
2022-08-12T15:53:42.637Z,1.80
2022-08-12T15:56:12.783Z,1.80
2022-08-12T15:58:42.142Z,1.70
2022-08-12T16:01:11.418Z,1.77
2022-08-12T16:03:46.418Z,2.20
2022-08-12T16:06:50.874Z,1.80
2022-08-12T16:09:17.312Z,2.13
2022-08-12T16:11:49.266Z,2.00
2022-08-12T16:14:16.896Z,2.20
2022-08-12T16:16:48.712Z,1.77
2022-08-12T16:20:05.243Z,1.70
2022-08-12T16:22:07.096Z,1.90
2022-08-12T16:24:43.545Z,1.80
2022-08-12T16:27:11.201Z,2.20
2022-08-12T16:29:53.001Z,2.30
2022-08-12T16:32:31.867Z,2.00
2022-08-12T16:35:00.630Z,1.97
2022-08-12T16:38:04.660Z,1.87
2022-08-12T16:40:18.837Z,1.60
2022-08-12T16:42:54.394Z,1.80
2022-08-12T16:45:32.247Z,1.67
2022-08-12T16:48:34.725Z,1.83
2022-08-12T16:51:04.443Z,2.30
2022-08-12T16:53:44.589Z,1.63
2022-08-12T16:56:17.161Z,1.60
2022-08-12T16:58:46.902Z,2.13
2022-08-12T17:01:15.757Z,1.60
2022-08-12T17:03:47.196Z,1.67
2022-08-12T17:06:22.175Z,1.70
2022-08-12T17:08:55.534Z,1.80
2022-08-12T17:11:25.422Z,1.90
2022-08-12T17:13:55.749Z,2.47
2022-08-12T17:16:24.142Z,1.70
2022-08-12T17:18:59.761Z,1.80
2022-08-12T17:21:40.845Z,1.73
2022-08-12T17:24:28.942Z,1.80
2022-08-12T17:26:59.311Z,1.87
2022-08-12T17:30:01.238Z,1.90
2022-08-12T17:32:14.998Z,1.93
2022-08-12T17:35:08.079Z,1.77
2022-08-12T17:37:37.093Z,2.47
2022-08-12T17:40:15.209Z,2.00
2022-08-12T17:42:48.204Z,1.63
2022-08-12T17:45:19.309Z,1.50
2022-08-12T17:48:04.582Z,1.50
2022-08-12T17:50:33.483Z,1.60
2022-08-12T17:53:02.974Z,1.70
2022-08-12T17:55:40.179Z,1.60
2022-08-12T17:58:13.942Z,1.80
2022-08-12T18:00:44.112Z,1.50
2022-08-12T18:03:13.565Z,1.77
2022-08-12T18:06:06.319Z,1.70
2022-08-12T18:08:36.439Z,1.80
2022-08-12T18:12:03.088Z,1.40
2022-08-12T18:14:10.850Z,2.00
2022-08-12T18:16:45.334Z,1.93
2022-08-12T18:19:13.913Z,1.80
2022-08-12T18:22:01.631Z,1.60
2022-08-12T18:24:29.943Z,1.60
2022-08-12T18:26:57.502Z,2.10
2022-08-12T18:29:41.890Z,1.70
2022-08-12T18:32:43.974Z,1.70
2022-08-12T18:35:10.176Z,1.60
2022-08-12T18:37:41.515Z,1.63
2022-08-12T18:40:28.016Z,1.83
2022-08-12T18:42:59.204Z,1.87
2022-08-12T18:45:31.684Z,1.97
2022-08-12T18:48:16.598Z,2.30
2022-08-12T18:50:49.334Z,3.10
2022-08-12T18:54:05.185Z,4.30
2022-08-12T18:56:07.001Z,4.10
2022-08-12T18:59:00.023Z,4.20
2022-08-12T19:02:17.199Z,3.80
2022-08-12T19:04:18.398Z,3.43
2022-08-12T19:06:46.885Z,2.87
2022-08-12T19:09:15.562Z,3.50
2022-08-12T19:12:01.216Z,2.70
2022-08-12T19:14:29.038Z,2.67
2022-08-12T19:17:01.052Z,2.33
2022-08-12T19:19:37.610Z,2.47
2022-08-12T19:22:09.947Z,3.83
2022-08-12T19:24:55.208Z,3.93
2022-08-12T19:27:23.191Z,4.80
2022-08-12T19:30:06.122Z,4.03
2022-08-12T19:32:40.744Z,4.30
2022-08-12T19:36:06.646Z,5.50
2022-08-12T19:38:03.701Z,4.80
2022-08-12T19:40:37.328Z,5.63
2022-08-12T19:43:18.976Z,5.70
2022-08-12T19:45:49.515Z,5.60
2022-08-12T19:48:22.340Z,5.13
2022-08-12T19:50:52.698Z,4.80
2022-08-12T19:53:22.908Z,4.90
2022-08-12T19:55:53.020Z,4.70
2022-08-12T19:58:20.837Z,4.67
2022-08-12T20:00:56.302Z,5.00
2022-08-12T20:03:38.847Z,4.27
2022-08-12T20:06:13.993Z,4.10
2022-08-12T20:08:48.603Z,3.83
2022-08-12T20:12:14.505Z,4.20
2022-08-12T20:14:10.726Z,4.50
2022-08-12T20:16:53.298Z,4.60
2022-08-12T20:19:52.731Z,3.80
2022-08-12T20:22:24.901Z,3.93
2022-08-12T20:24:58.316Z,3.73
2022-08-12T20:28:05.631Z,3.10
2022-08-12T20:30:18.092Z,3.20
2022-08-12T20:32:53.890Z,3.10
2022-08-12T20:35:24.311Z,3.50
2022-08-12T20:38:06.886Z,3.30
2022-08-12T20:40:40.143Z,2.97
2022-08-12T20:43:08.481Z,2.20
2022-08-12T20:45:50.496Z,2.40
2022-08-12T20:48:24.205Z,2.70
2022-08-12T20:50:54.264Z,2.37
2022-08-12T20:53:32.860Z,2.07
2022-08-12T20:56:19.723Z,1.77
2022-08-12T20:58:47.344Z,2.13
2022-08-12T21:01:18.579Z,1.93
2022-08-12T21:04:07.860Z,2.27
2022-08-12T21:07:04.595Z,1.80
2022-08-12T21:09:40.694Z,1.80
2022-08-12T21:12:28.676Z,1.80
2022-08-12T21:15:17.128Z,1.73
2022-08-12T21:18:00.611Z,1.70
2022-08-12T21:20:35.603Z,1.60
2022-08-12T21:23:06.280Z,1.80
2022-08-12T21:25:44.762Z,1.30
2022-08-12T21:28:13.387Z,1.73
2022-08-12T21:31:10.485Z,2.10
2022-08-12T21:33:30.760Z,2.00
2022-08-12T21:36:00.927Z,1.60
2022-08-12T21:38:40.291Z,1.77
2022-08-12T21:41:15.546Z,1.90
2022-08-12T21:43:45.156Z,1.93
2022-08-12T21:46:35.067Z,1.73
2022-08-12T21:49:05.500Z,1.50
2022-08-12T21:51:49.444Z,1.60
2022-08-12T21:54:21.980Z,1.33
2022-08-12T21:56:50.429Z,1.40
2022-08-12T21:59:18.705Z,1.40
2022-08-12T22:01:48.528Z,1.43
2022-08-12T22:04:34.170Z,1.30
2022-08-12T22:07:02.211Z,1.50
2022-08-12T22:09:43.401Z,1.47
2022-08-12T22:12:29.534Z,1.30
2022-08-12T22:14:57.259Z,1.30
2022-08-12T22:17:33.710Z,1.37
2022-08-12T22:20:01.530Z,1.57
2022-08-12T22:22:33.925Z,1.30
2022-08-12T22:25:03.226Z,1.30
2022-08-12T22:27:52.701Z,1.50
2022-08-12T22:30:39.638Z,1.30
2022-08-12T22:33:15.766Z,1.30
2022-08-12T22:35:56.575Z,1.60
2022-08-12T22:38:29.075Z,1.83
2022-08-12T22:41:01.092Z,1.60
2022-08-12T22:44:00.217Z,1.50
2022-08-12T22:46:52.432Z,1.50
2022-08-12T22:49:22.328Z,1.67
2022-08-12T22:52:00.377Z,1.63
2022-08-12T22:54:35.767Z,1.50
2022-08-12T22:57:12.093Z,1.63
2022-08-12T22:59:55.465Z,1.40
2022-08-12T23:02:25.140Z,1.70
2022-08-12T23:04:57.164Z,1.50
2022-08-12T23:07:24.919Z,1.40
2022-08-12T23:09:54.822Z,1.40
2022-08-12T23:12:46.497Z,1.50
2022-08-12T23:15:14.744Z,1.30
2022-08-12T23:17:42.584Z,1.53
2022-08-12T23:20:11.473Z,1.60
2022-08-12T23:22:40.266Z,1.60
2022-08-12T23:25:18.695Z,1.40
2022-08-12T23:28:05.817Z,1.50
2022-08-12T23:30:55.330Z,1.50
2022-08-12T23:34:00.836Z,1.50
2022-08-12T23:36:12.745Z,1.77
2022-08-12T23:38:45.147Z,1.53
2022-08-12T23:41:13.704Z,1.60
2022-08-12T23:43:48.635Z,1.70
2022-08-12T23:46:18.624Z,1.70
2022-08-12T23:48:50.521Z,2.00
2022-08-12T23:51:22.535Z,1.90
2022-08-12T23:53:54.984Z,1.93
2022-08-12T23:56:23.581Z,1.70
2022-08-12T23:58:55.303Z,1.80
